sensor_id;sensor_type;location;lat;lon;timestamp;P1;durP1;ratioP1;P2;durP2;ratioP2
74612;SDS011;63119;51.788;8.824;2022-12-24T00:00:23;16.30;;;6.00;;
74612;SDS011;63119;51.788;8.824;2022-12-24T00:02:51;11.95;;;5.57;;
74612;SDS011;63119;51.788;8.824;2022-12-24T00:05:17;14.30;;;5.90;;
74612;SDS011;63119;51.788;8.824;2022-12-24T00:07:42;13.93;;;5.43;;
74612;SDS011;63119;51.788;8.824;2022-12-24T00:10:08;16.30;;;5.77;;
74612;SDS011;63119;51.788;8.824;2022-12-24T00:12:34;18.17;;;6.38;;
74612;SDS011;63119;51.788;8.824;2022-12-24T00:15:00;14.50;;;5.53;;
74612;SDS011;63119;51.788;8.824;2022-12-24T00:17:25;16.10;;;6.53;;
74612;SDS011;63119;51.788;8.824;2022-12-24T00:19:50;17.97;;;6.13;;
74612;SDS011;63119;51.788;8.824;2022-12-24T00:22:15;17.67;;;5.57;;
74612;SDS011;63119;51.788;8.824;2022-12-24T00:24:41;14.23;;;5.87;;
74612;SDS011;63119;51.788;8.824;2022-12-24T00:27:06;12.20;;;5.07;;
74612;SDS011;63119;51.788;8.824;2022-12-24T00:29:32;22.00;;;5.43;;
74612;SDS011;63119;51.788;8.824;2022-12-24T00:31:57;14.50;;;5.45;;
74612;SDS011;63119;51.788;8.824;2022-12-24T00:34:23;12.85;;;5.88;;
74612;SDS011;63119;51.788;8.824;2022-12-24T00:36:49;14.30;;;6.22;;
74612;SDS011;63119;51.788;8.824;2022-12-24T00:39:14;15.13;;;5.78;;
74612;SDS011;63119;51.788;8.824;2022-12-24T00:41:40;15.30;;;5.53;;
74612;SDS011;63119;51.788;8.824;2022-12-24T00:44:05;12.63;;;5.37;;
74612;SDS011;63119;51.788;8.824;2022-12-24T00:46:34;14.93;;;6.28;;
74612;SDS011;63119;51.788;8.824;2022-12-24T00:48:59;15.65;;;7.13;;
74612;SDS011;63119;51.788;8.824;2022-12-24T00:51:25;19.75;;;7.63;;
74612;SDS011;63119;51.788;8.824;2022-12-24T00:53:51;17.33;;;6.80;;
74612;SDS011;63119;51.788;8.824;2022-12-24T00:56:17;14.63;;;6.32;;
74612;SDS011;63119;51.788;8.824;2022-12-24T00:58:42;15.15;;;7.45;;
74612;SDS011;63119;51.788;8.824;2022-12-24T01:01:07;18.40;;;7.70;;
74612;SDS011;63119;51.788;8.824;2022-12-24T01:03:33;17.17;;;7.07;;
74612;SDS011;63119;51.788;8.824;2022-12-24T01:06:02;18.05;;;6.45;;
74612;SDS011;63119;51.788;8.824;2022-12-24T01:08:28;19.45;;;7.05;;
74612;SDS011;63119;51.788;8.824;2022-12-24T01:10:54;17.15;;;8.10;;
74612;SDS011;63119;51.788;8.824;2022-12-24T01:13:19;15.87;;;7.07;;
74612;SDS011;63119;51.788;8.824;2022-12-24T01:15:44;15.27;;;7.67;;
74612;SDS011;63119;51.788;8.824;2022-12-24T01:18:10;16.83;;;7.73;;
74612;SDS011;63119;51.788;8.824;2022-12-24T01:20:35;16.07;;;7.53;;
74612;SDS011;63119;51.788;8.824;2022-12-24T01:23:00;15.87;;;7.27;;
74612;SDS011;63119;51.788;8.824;2022-12-24T01:25:25;17.20;;;6.63;;
74612;SDS011;63119;51.788;8.824;2022-12-24T01:27:51;16.67;;;8.63;;
74612;SDS011;63119;51.788;8.824;2022-12-24T01:30:16;18.53;;;8.50;;
74612;SDS011;63119;51.788;8.824;2022-12-24T01:32:41;15.95;;;7.53;;
74612;SDS011;63119;51.788;8.824;2022-12-24T01:35:07;17.90;;;7.13;;
74612;SDS011;63119;51.788;8.824;2022-12-24T01:37:33;19.05;;;7.43;;
74612;SDS011;63119;51.788;8.824;2022-12-24T01:39:59;20.35;;;7.13;;
74612;SDS011;63119;51.788;8.824;2022-12-24T01:42:44;23.25;;;7.03;;
74612;SDS011;63119;51.788;8.824;2022-12-24T01:45:37;23.85;;;6.88;;
74612;SDS011;63119;51.788;8.824;2022-12-24T01:48:16;11.75;;;5.88;;
74612;SDS011;63119;51.788;8.824;2022-12-24T01:50:43;20.83;;;6.53;;
74612;SDS011;63119;51.788;8.824;2022-12-24T01:53:09;17.08;;;5.93;;
74612;SDS011;63119;51.788;8.824;2022-12-24T01:55:35;13.25;;;5.28;;
74612;SDS011;63119;51.788;8.824;2022-12-24T01:58:00;19.45;;;5.80;;
74612;SDS011;63119;51.788;8.824;2022-12-24T02:00:27;18.73;;;5.38;;
74612;SDS011;63119;51.788;8.824;2022-12-24T02:02:53;20.58;;;5.45;;
74612;SDS011;63119;51.788;8.824;2022-12-24T02:07:53;14.82;;;5.07;;
74612;SDS011;63119;51.788;8.824;2022-12-24T02:10:19;18.40;;;5.45;;
74612;SDS011;63119;51.788;8.824;2022-12-24T02:12:45;21.03;;;5.43;;
74612;SDS011;63119;51.788;8.824;2022-12-24T02:15:12;17.48;;;6.70;;
74612;SDS011;63119;51.788;8.824;2022-12-24T02:17:47;17.65;;;5.78;;
74612;SDS011;63119;51.788;8.824;2022-12-24T02:32:05;15.82;;;5.72;;
74612;SDS011;63119;51.788;8.824;2022-12-24T02:34:37;19.98;;;5.88;;
74612;SDS011;63119;51.788;8.824;2022-12-24T02:37:15;15.90;;;6.20;;
74612;SDS011;63119;51.788;8.824;2022-12-24T02:39:47;17.13;;;5.57;;
74612;SDS011;63119;51.788;8.824;2022-12-24T02:42:21;17.77;;;5.57;;
74612;SDS011;63119;51.788;8.824;2022-12-24T02:45:09;16.75;;;5.28;;
74612;SDS011;63119;51.788;8.824;2022-12-24T02:47:37;19.60;;;4.88;;
74612;SDS011;63119;51.788;8.824;2022-12-24T02:50:04;18.70;;;4.93;;
74612;SDS011;63119;51.788;8.824;2022-12-24T02:55:11;16.38;;;4.25;;
74612;SDS011;63119;51.788;8.824;2022-12-24T03:01:11;20.30;;;4.03;;
74612;SDS011;63119;51.788;8.824;2022-12-24T03:06:36;16.15;;;4.35;;
74612;SDS011;63119;51.788;8.824;2022-12-24T03:09:17;21.52;;;4.90;;
74612;SDS011;63119;51.788;8.824;2022-12-24T03:12:03;12.68;;;3.63;;
74612;SDS011;63119;51.788;8.824;2022-12-24T03:14:33;17.52;;;4.88;;
74612;SDS011;63119;51.788;8.824;2022-12-24T03:16:59;15.32;;;4.72;;
74612;SDS011;63119;51.788;8.824;2022-12-24T03:19:27;17.02;;;4.53;;
74612;SDS011;63119;51.788;8.824;2022-12-24T03:21:55;22.48;;;5.85;;
74612;SDS011;63119;51.788;8.824;2022-12-24T03:24:23;10.75;;;4.25;;
74612;SDS011;63119;51.788;8.824;2022-12-24T03:26:48;22.33;;;4.75;;
74612;SDS011;63119;51.788;8.824;2022-12-24T03:29:15;18.23;;;3.78;;
74612;SDS011;63119;51.788;8.824;2022-12-24T03:31:42;21.63;;;4.22;;
74612;SDS011;63119;51.788;8.824;2022-12-24T03:34:09;19.95;;;4.97;;
74612;SDS011;63119;51.788;8.824;2022-12-24T03:36:34;11.18;;;3.97;;
74612;SDS011;63119;51.788;8.824;2022-12-24T03:39:00;18.30;;;3.80;;
74612;SDS011;63119;51.788;8.824;2022-12-24T03:41:25;20.00;;;6.27;;
74612;SDS011;63119;51.788;8.824;2022-12-24T03:43:50;14.87;;;4.20;;
74612;SDS011;63119;51.788;8.824;2022-12-24T03:46:15;22.97;;;4.30;;
74612;SDS011;63119;51.788;8.824;2022-12-24T03:48:41;18.97;;;4.40;;
74612;SDS011;63119;51.788;8.824;2022-12-24T03:51:13;19.47;;;3.93;;
74612;SDS011;63119;51.788;8.824;2022-12-24T03:53:41;19.92;;;4.32;;
74612;SDS011;63119;51.788;8.824;2022-12-24T03:56:06;25.20;;;4.57;;
74612;SDS011;63119;51.788;8.824;2022-12-24T03:58:32;15.00;;;4.43;;
74612;SDS011;63119;51.788;8.824;2022-12-24T04:00:57;18.87;;;4.17;;
74612;SDS011;63119;51.788;8.824;2022-12-24T04:03:22;18.57;;;4.17;;
74612;SDS011;63119;51.788;8.824;2022-12-24T04:05:47;16.80;;;4.60;;
74612;SDS011;63119;51.788;8.824;2022-12-24T04:08:24;17.27;;;4.60;;
74612;SDS011;63119;51.788;8.824;2022-12-24T04:10:50;18.07;;;4.03;;
74612;SDS011;63119;51.788;8.824;2022-12-24T04:13:15;25.00;;;4.67;;
74612;SDS011;63119;51.788;8.824;2022-12-24T04:15:40;17.47;;;4.20;;
74612;SDS011;63119;51.788;8.824;2022-12-24T04:18:05;19.53;;;4.80;;
74612;SDS011;63119;51.788;8.824;2022-12-24T04:20:30;15.10;;;3.87;;
74612;SDS011;63119;51.788;8.824;2022-12-24T04:22:56;19.53;;;3.73;;
74612;SDS011;63119;51.788;8.824;2022-12-24T04:25:21;16.83;;;4.00;;
74612;SDS011;63119;51.788;8.824;2022-12-24T04:27:46;18.73;;;4.67;;
74612;SDS011;63119;51.788;8.824;2022-12-24T04:30:11;17.17;;;4.97;;
74612;SDS011;63119;51.788;8.824;2022-12-24T04:32:37;17.50;;;4.63;;
74612;SDS011;63119;51.788;8.824;2022-12-24T04:35:02;19.10;;;4.57;;
74612;SDS011;63119;51.788;8.824;2022-12-24T04:37:27;22.45;;;3.83;;
74612;SDS011;63119;51.788;8.824;2022-12-24T04:39:53;16.37;;;4.57;;
74612;SDS011;63119;51.788;8.824;2022-12-24T04:42:18;17.27;;;4.70;;
74612;SDS011;63119;51.788;8.824;2022-12-24T04:44:43;17.40;;;4.77;;
74612;SDS011;63119;51.788;8.824;2022-12-24T04:47:08;22.23;;;5.40;;
74612;SDS011;63119;51.788;8.824;2022-12-24T04:49:34;19.23;;;4.68;;
74612;SDS011;63119;51.788;8.824;2022-12-24T04:51:59;15.80;;;4.17;;
74612;SDS011;63119;51.788;8.824;2022-12-24T04:54:25;24.30;;;4.47;;
74612;SDS011;63119;51.788;8.824;2022-12-24T04:56:50;15.75;;;4.28;;
74612;SDS011;63119;51.788;8.824;2022-12-24T04:59:16;23.93;;;4.73;;
74612;SDS011;63119;51.788;8.824;2022-12-24T05:01:41;20.80;;;4.67;;
74612;SDS011;63119;51.788;8.824;2022-12-24T05:04:07;19.03;;;4.93;;
74612;SDS011;63119;51.788;8.824;2022-12-24T05:06:33;25.27;;;4.30;;
74612;SDS011;63119;51.788;8.824;2022-12-24T05:08:58;17.20;;;4.27;;
74612;SDS011;63119;51.788;8.824;2022-12-24T05:11:24;17.73;;;4.03;;
74612;SDS011;63119;51.788;8.824;2022-12-24T05:13:49;12.63;;;3.42;;
74612;SDS011;63119;51.788;8.824;2022-12-24T05:16:16;21.03;;;3.67;;
74612;SDS011;63119;51.788;8.824;2022-12-24T05:18:42;20.40;;;4.65;;
74612;SDS011;63119;51.788;8.824;2022-12-24T05:21:08;14.27;;;4.50;;
74612;SDS011;63119;51.788;8.824;2022-12-24T05:23:35;18.88;;;3.92;;
74612;SDS011;63119;51.788;8.824;2022-12-24T05:26:30;15.52;;;4.50;;
74612;SDS011;63119;51.788;8.824;2022-12-24T05:31:26;15.95;;;4.00;;
74612;SDS011;63119;51.788;8.824;2022-12-24T05:33:53;21.05;;;5.18;;
74612;SDS011;63119;51.788;8.824;2022-12-24T05:36:19;19.60;;;4.72;;
74612;SDS011;63119;51.788;8.824;2022-12-24T05:38:45;16.30;;;3.92;;
74612;SDS011;63119;51.788;8.824;2022-12-24T05:41:11;15.50;;;3.65;;
74612;SDS011;63119;51.788;8.824;2022-12-24T05:43:36;18.33;;;4.80;;
74612;SDS011;63119;51.788;8.824;2022-12-24T05:46:05;12.13;;;3.47;;
74612;SDS011;63119;51.788;8.824;2022-12-24T05:48:32;22.13;;;5.10;;
74612;SDS011;63119;51.788;8.824;2022-12-24T05:50:58;17.65;;;4.03;;
74612;SDS011;63119;51.788;8.824;2022-12-24T05:53:23;20.13;;;4.15;;
74612;SDS011;63119;51.788;8.824;2022-12-24T05:55:49;14.00;;;3.90;;
74612;SDS011;63119;51.788;8.824;2022-12-24T05:58:14;18.47;;;4.10;;
74612;SDS011;63119;51.788;8.824;2022-12-24T06:00:40;19.42;;;4.20;;
74612;SDS011;63119;51.788;8.824;2022-12-24T06:03:05;16.85;;;4.53;;
74612;SDS011;63119;51.788;8.824;2022-12-24T06:05:31;22.57;;;4.63;;
74612;SDS011;63119;51.788;8.824;2022-12-24T06:07:56;18.73;;;4.65;;
74612;SDS011;63119;51.788;8.824;2022-12-24T06:10:21;24.67;;;5.13;;
74612;SDS011;63119;51.788;8.824;2022-12-24T06:12:47;18.13;;;5.28;;
74612;SDS011;63119;51.788;8.824;2022-12-24T06:15:12;23.63;;;5.20;;
74612;SDS011;63119;51.788;8.824;2022-12-24T06:17:37;22.23;;;4.88;;
74612;SDS011;63119;51.788;8.824;2022-12-24T06:20:03;21.63;;;5.17;;
74612;SDS011;63119;51.788;8.824;2022-12-24T06:22:29;18.70;;;4.88;;
74612;SDS011;63119;51.788;8.824;2022-12-24T06:24:54;19.08;;;4.40;;
74612;SDS011;63119;51.788;8.824;2022-12-24T06:27:20;16.43;;;5.80;;
74612;SDS011;63119;51.788;8.824;2022-12-24T06:29:45;18.75;;;5.05;;
74612;SDS011;63119;51.788;8.824;2022-12-24T06:32:10;16.23;;;4.77;;
74612;SDS011;63119;51.788;8.824;2022-12-24T06:34:36;27.38;;;4.88;;
74612;SDS011;63119;51.788;8.824;2022-12-24T06:37:01;21.43;;;6.87;;
74612;SDS011;63119;51.788;8.824;2022-12-24T06:39:26;25.53;;;5.93;;
74612;SDS011;63119;51.788;8.824;2022-12-24T06:41:52;18.27;;;4.68;;
74612;SDS011;63119;51.788;8.824;2022-12-24T06:44:17;19.83;;;5.07;;
74612;SDS011;63119;51.788;8.824;2022-12-24T06:46:42;21.07;;;5.17;;
74612;SDS011;63119;51.788;8.824;2022-12-24T06:49:07;19.97;;;5.97;;
74612;SDS011;63119;51.788;8.824;2022-12-24T06:51:33;23.87;;;5.53;;
74612;SDS011;63119;51.788;8.824;2022-12-24T06:53:58;25.67;;;5.65;;
74612;SDS011;63119;51.788;8.824;2022-12-24T06:56:23;27.40;;;6.53;;
74612;SDS011;63119;51.788;8.824;2022-12-24T06:58:49;20.73;;;4.57;;
74612;SDS011;63119;51.788;8.824;2022-12-24T07:01:15;19.42;;;5.38;;
74612;SDS011;63119;51.788;8.824;2022-12-24T07:03:43;19.98;;;6.03;;
74612;SDS011;63119;51.788;8.824;2022-12-24T07:06:17;20.30;;;5.75;;
74612;SDS011;63119;51.788;8.824;2022-12-24T07:08:45;19.08;;;5.93;;
74612;SDS011;63119;51.788;8.824;2022-12-24T07:11:10;20.77;;;5.53;;
74612;SDS011;63119;51.788;8.824;2022-12-24T07:13:35;18.37;;;4.97;;
74612;SDS011;63119;51.788;8.824;2022-12-24T07:16:03;24.37;;;5.57;;
74612;SDS011;63119;51.788;8.824;2022-12-24T07:20:54;24.10;;;4.90;;
74612;SDS011;63119;51.788;8.824;2022-12-24T07:23:19;23.80;;;5.20;;
74612;SDS011;63119;51.788;8.824;2022-12-24T07:25:45;25.77;;;4.70;;
74612;SDS011;63119;51.788;8.824;2022-12-24T07:28:10;17.67;;;5.40;;
74612;SDS011;63119;51.788;8.824;2022-12-24T07:30:35;27.20;;;5.03;;
74612;SDS011;63119;51.788;8.824;2022-12-24T07:33:01;22.33;;;5.30;;
74612;SDS011;63119;51.788;8.824;2022-12-24T07:35:26;21.47;;;4.80;;
74612;SDS011;63119;51.788;8.824;2022-12-24T07:37:51;18.03;;;5.20;;
74612;SDS011;63119;51.788;8.824;2022-12-24T07:40:16;19.17;;;4.47;;
74612;SDS011;63119;51.788;8.824;2022-12-24T07:42:42;18.67;;;5.33;;
74612;SDS011;63119;51.788;8.824;2022-12-24T07:45:07;14.20;;;5.03;;
74612;SDS011;63119;51.788;8.824;2022-12-24T07:47:33;21.88;;;5.88;;
74612;SDS011;63119;51.788;8.824;2022-12-24T07:49:59;19.20;;;4.68;;
74612;SDS011;63119;51.788;8.824;2022-12-24T07:52:24;20.67;;;4.80;;
74612;SDS011;63119;51.788;8.824;2022-12-24T07:54:50;19.33;;;5.67;;
74612;SDS011;63119;51.788;8.824;2022-12-24T07:57:15;21.43;;;6.10;;
74612;SDS011;63119;51.788;8.824;2022-12-24T07:59:40;21.48;;;6.57;;
74612;SDS011;63119;51.788;8.824;2022-12-24T08:02:07;23.57;;;5.77;;
74612;SDS011;63119;51.788;8.824;2022-12-24T08:04:34;16.88;;;5.20;;
74612;SDS011;63119;51.788;8.824;2022-12-24T08:07:00;19.70;;;5.10;;
74612;SDS011;63119;51.788;8.824;2022-12-24T08:09:27;18.08;;;5.45;;
74612;SDS011;63119;51.788;8.824;2022-12-24T08:11:55;21.30;;;5.60;;
74612;SDS011;63119;51.788;8.824;2022-12-24T08:14:20;19.57;;;5.43;;
74612;SDS011;63119;51.788;8.824;2022-12-24T08:16:46;22.53;;;5.40;;
74612;SDS011;63119;51.788;8.824;2022-12-24T08:19:11;11.23;;;4.27;;
74612;SDS011;63119;51.788;8.824;2022-12-24T08:21:36;16.50;;;4.50;;
74612;SDS011;63119;51.788;8.824;2022-12-24T08:24:01;18.43;;;4.90;;
74612;SDS011;63119;51.788;8.824;2022-12-24T08:26:27;16.80;;;5.65;;
74612;SDS011;63119;51.788;8.824;2022-12-24T08:28:52;19.87;;;5.77;;
74612;SDS011;63119;51.788;8.824;2022-12-24T08:31:17;16.63;;;5.20;;
74612;SDS011;63119;51.788;8.824;2022-12-24T08:33:42;17.20;;;5.50;;
74612;SDS011;63119;51.788;8.824;2022-12-24T08:36:08;17.27;;;5.67;;
74612;SDS011;63119;51.788;8.824;2022-12-24T08:38:33;16.17;;;4.97;;
74612;SDS011;63119;51.788;8.824;2022-12-24T08:40:58;15.83;;;4.87;;
74612;SDS011;63119;51.788;8.824;2022-12-24T08:43:24;24.93;;;5.73;;
74612;SDS011;63119;51.788;8.824;2022-12-24T08:45:50;17.67;;;5.30;;
74612;SDS011;63119;51.788;8.824;2022-12-24T08:48:16;16.87;;;4.83;;
74612;SDS011;63119;51.788;8.824;2022-12-24T08:50:41;15.02;;;4.82;;
74612;SDS011;63119;51.788;8.824;2022-12-24T08:53:07;18.30;;;5.55;;
74612;SDS011;63119;51.788;8.824;2022-12-24T08:55:33;23.70;;;4.60;;
74612;SDS011;63119;51.788;8.824;2022-12-24T08:57:59;15.45;;;4.15;;
74612;SDS011;63119;51.788;8.824;2022-12-24T09:00:25;18.27;;;4.95;;
74612;SDS011;63119;51.788;8.824;2022-12-24T09:02:50;16.00;;;4.90;;
74612;SDS011;63119;51.788;8.824;2022-12-24T09:05:16;15.43;;;4.60;;
74612;SDS011;63119;51.788;8.824;2022-12-24T09:07:41;19.63;;;5.95;;
74612;SDS011;63119;51.788;8.824;2022-12-24T09:10:07;18.30;;;5.53;;
74612;SDS011;63119;51.788;8.824;2022-12-24T09:12:33;21.58;;;5.45;;
74612;SDS011;63119;51.788;8.824;2022-12-24T09:14:58;19.05;;;5.28;;
74612;SDS011;63119;51.788;8.824;2022-12-24T09:17:23;16.70;;;4.67;;
74612;SDS011;63119;51.788;8.824;2022-12-24T09:19:48;21.13;;;4.50;;
74612;SDS011;63119;51.788;8.824;2022-12-24T09:22:15;16.63;;;4.60;;
74612;SDS011;63119;51.788;8.824;2022-12-24T09:24:40;14.25;;;4.53;;
74612;SDS011;63119;51.788;8.824;2022-12-24T09:27:05;16.80;;;4.67;;
74612;SDS011;63119;51.788;8.824;2022-12-24T09:29:30;18.13;;;4.90;;
74612;SDS011;63119;51.788;8.824;2022-12-24T09:31:56;14.77;;;3.55;;
74612;SDS011;63119;51.788;8.824;2022-12-24T09:34:22;15.68;;;4.00;;
74612;SDS011;63119;51.788;8.824;2022-12-24T09:36:48;14.07;;;4.75;;
74612;SDS011;63119;51.788;8.824;2022-12-24T09:39:13;16.10;;;5.07;;
74612;SDS011;63119;51.788;8.824;2022-12-24T09:44:41;14.50;;;3.42;;
74612;SDS011;63119;51.788;8.824;2022-12-24T09:50:03;18.77;;;4.55;;
74612;SDS011;63119;51.788;8.824;2022-12-24T09:52:45;14.60;;;4.18;;
74612;SDS011;63119;51.788;8.824;2022-12-24T09:55:22;22.83;;;4.43;;
74612;SDS011;63119;51.788;8.824;2022-12-24T09:57:52;23.60;;;5.18;;
74612;SDS011;63119;51.788;8.824;2022-12-24T10:00:20;23.15;;;6.35;;
74612;SDS011;63119;51.788;8.824;2022-12-24T10:02:46;19.27;;;7.40;;
74612;SDS011;63119;51.788;8.824;2022-12-24T10:05:14;17.15;;;5.00;;
74612;SDS011;63119;51.788;8.824;2022-12-24T10:08:00;26.48;;;5.82;;
74612;SDS011;63119;51.788;8.824;2022-12-24T10:10:45;21.58;;;5.10;;
74612;SDS011;63119;51.788;8.824;2022-12-24T10:13:22;15.30;;;4.80;;
74612;SDS011;63119;51.788;8.824;2022-12-24T10:16:22;18.95;;;4.43;;
74612;SDS011;63119;51.788;8.824;2022-12-24T10:19:04;12.93;;;4.55;;
74612;SDS011;63119;51.788;8.824;2022-12-24T10:21:46;17.20;;;5.10;;
74612;SDS011;63119;51.788;8.824;2022-12-24T10:24:22;18.33;;;5.22;;
74612;SDS011;63119;51.788;8.824;2022-12-24T10:26:57;13.82;;;5.28;;
74612;SDS011;63119;51.788;8.824;2022-12-24T10:29:27;15.70;;;5.32;;
74612;SDS011;63119;51.788;8.824;2022-12-24T10:31:57;18.48;;;5.45;;
74612;SDS011;63119;51.788;8.824;2022-12-24T10:34:29;19.48;;;6.07;;
74612;SDS011;63119;51.788;8.824;2022-12-24T10:37:00;18.48;;;5.47;;
74612;SDS011;63119;51.788;8.824;2022-12-24T10:39:28;21.20;;;5.75;;
74612;SDS011;63119;51.788;8.824;2022-12-24T10:41:54;18.38;;;6.10;;
74612;SDS011;63119;51.788;8.824;2022-12-24T10:44:26;18.95;;;5.70;;
74612;SDS011;63119;51.788;8.824;2022-12-24T10:46:54;20.42;;;6.55;;
74612;SDS011;63119;51.788;8.824;2022-12-24T10:49:35;21.83;;;6.43;;
74612;SDS011;63119;51.788;8.824;2022-12-24T10:52:10;20.65;;;6.60;;
74612;SDS011;63119;51.788;8.824;2022-12-24T10:54:38;17.58;;;5.32;;
74612;SDS011;63119;51.788;8.824;2022-12-24T10:57:29;19.85;;;5.18;;
74612;SDS011;63119;51.788;8.824;2022-12-24T10:59:54;18.93;;;5.10;;
74612;SDS011;63119;51.788;8.824;2022-12-24T11:02:27;15.23;;;4.40;;
74612;SDS011;63119;51.788;8.824;2022-12-24T11:04:58;16.70;;;4.40;;
74612;SDS011;63119;51.788;8.824;2022-12-24T11:07:25;17.33;;;5.22;;
74612;SDS011;63119;51.788;8.824;2022-12-24T11:09:59;17.52;;;4.30;;
74612;SDS011;63119;51.788;8.824;2022-12-24T11:12:28;23.80;;;4.20;;
74612;SDS011;63119;51.788;8.824;2022-12-24T11:15:16;18.02;;;5.03;;
74612;SDS011;63119;51.788;8.824;2022-12-24T11:17:53;15.95;;;5.72;;
74612;SDS011;63119;51.788;8.824;2022-12-24T11:20:22;12.25;;;4.07;;
74612;SDS011;63119;51.788;8.824;2022-12-24T11:22:51;17.05;;;4.78;;
74612;SDS011;63119;51.788;8.824;2022-12-24T11:25:21;20.13;;;5.10;;
74612;SDS011;63119;51.788;8.824;2022-12-24T11:27:51;18.55;;;4.15;;
74612;SDS011;63119;51.788;8.824;2022-12-24T11:30:21;16.15;;;4.88;;
74612;SDS011;63119;51.788;8.824;2022-12-24T11:33:14;22.42;;;5.15;;
74612;SDS011;63119;51.788;8.824;2022-12-24T11:35:44;16.00;;;4.70;;
74612;SDS011;63119;51.788;8.824;2022-12-24T11:38:14;17.52;;;4.65;;
74612;SDS011;63119;51.788;8.824;2022-12-24T11:40:44;16.52;;;4.38;;
74612;SDS011;63119;51.788;8.824;2022-12-24T11:43:19;14.05;;;3.88;;
74612;SDS011;63119;51.788;8.824;2022-12-24T11:48:27;12.63;;;4.93;;
74612;SDS011;63119;51.788;8.824;2022-12-24T11:50:58;18.10;;;5.18;;
74612;SDS011;63119;51.788;8.824;2022-12-24T11:53:45;15.65;;;4.65;;
74612;SDS011;63119;51.788;8.824;2022-12-24T11:59:11;18.13;;;4.57;;
74612;SDS011;63119;51.788;8.824;2022-12-24T12:02:30;20.83;;;4.60;;
74612;SDS011;63119;51.788;8.824;2022-12-24T12:04:38;14.88;;;5.18;;
74612;SDS011;63119;51.788;8.824;2022-12-24T12:07:18;16.52;;;5.72;;
74612;SDS011;63119;51.788;8.824;2022-12-24T12:09:49;20.67;;;5.47;;
74612;SDS011;63119;51.788;8.824;2022-12-24T12:12:21;20.05;;;4.65;;
74612;SDS011;63119;51.788;8.824;2022-12-24T12:15:13;17.80;;;5.63;;
74612;SDS011;63119;51.788;8.824;2022-12-24T12:20:27;24.50;;;5.55;;
74612;SDS011;63119;51.788;8.824;2022-12-24T12:23:05;19.23;;;5.35;;
74612;SDS011;63119;51.788;8.824;2022-12-24T12:25:44;13.70;;;4.40;;
74612;SDS011;63119;51.788;8.824;2022-12-24T12:28:27;17.73;;;5.15;;
74612;SDS011;63119;51.788;8.824;2022-12-24T12:31:01;20.08;;;6.35;;
74612;SDS011;63119;51.788;8.824;2022-12-24T12:33:39;15.07;;;5.25;;
74612;SDS011;63119;51.788;8.824;2022-12-24T12:36:09;17.20;;;5.18;;
74612;SDS011;63119;51.788;8.824;2022-12-24T12:38:40;20.73;;;4.78;;
74612;SDS011;63119;51.788;8.824;2022-12-24T12:43:57;18.95;;;6.20;;
74612;SDS011;63119;51.788;8.824;2022-12-24T12:46:53;15.40;;;4.25;;
74612;SDS011;63119;51.788;8.824;2022-12-24T12:49:40;14.48;;;4.68;;
74612;SDS011;63119;51.788;8.824;2022-12-24T12:54:58;17.95;;;5.72;;
74612;SDS011;63119;51.788;8.824;2022-12-24T12:57:33;16.85;;;5.18;;
74612;SDS011;63119;51.788;8.824;2022-12-24T13:00:05;13.77;;;4.28;;
74612;SDS011;63119;51.788;8.824;2022-12-24T13:06:03;20.27;;;6.53;;
74612;SDS011;63119;51.788;8.824;2022-12-24T13:11:23;22.75;;;7.53;;
74612;SDS011;63119;51.788;8.824;2022-12-24T13:14:07;18.67;;;6.55;;
74612;SDS011;63119;51.788;8.824;2022-12-24T13:19:39;22.80;;;8.38;;
74612;SDS011;63119;51.788;8.824;2022-12-24T13:22:14;17.52;;;5.75;;
74612;SDS011;63119;51.788;8.824;2022-12-24T13:24:46;23.98;;;6.68;;
74612;SDS011;63119;51.788;8.824;2022-12-24T13:35:03;15.45;;;5.53;;
74612;SDS011;63119;51.788;8.824;2022-12-24T13:37:44;18.73;;;5.90;;
74612;SDS011;63119;51.788;8.824;2022-12-24T13:42:45;22.27;;;5.77;;
74612;SDS011;63119;51.788;8.824;2022-12-24T13:47:54;20.58;;;6.15;;
74612;SDS011;63119;51.788;8.824;2022-12-24T13:50:21;16.05;;;4.85;;
74612;SDS011;63119;51.788;8.824;2022-12-24T13:52:52;17.65;;;5.15;;
74612;SDS011;63119;51.788;8.824;2022-12-24T13:55:18;16.38;;;5.32;;
74612;SDS011;63119;51.788;8.824;2022-12-24T13:57:44;16.92;;;4.85;;
74612;SDS011;63119;51.788;8.824;2022-12-24T14:02:50;17.55;;;5.28;;
74612;SDS011;63119;51.788;8.824;2022-12-24T14:05:36;14.43;;;5.28;;
74612;SDS011;63119;51.788;8.824;2022-12-24T14:16:13;22.33;;;5.05;;
74612;SDS011;63119;51.788;8.824;2022-12-24T14:18:42;21.00;;;4.97;;
74612;SDS011;63119;51.788;8.824;2022-12-24T14:21:15;15.93;;;4.95;;
74612;SDS011;63119;51.788;8.824;2022-12-24T14:26:15;18.73;;;4.90;;
74612;SDS011;63119;51.788;8.824;2022-12-24T14:28:44;21.60;;;5.07;;
74612;SDS011;63119;51.788;8.824;2022-12-24T14:31:17;16.38;;;6.35;;
74612;SDS011;63119;51.788;8.824;2022-12-24T14:33:43;18.70;;;5.18;;
74612;SDS011;63119;51.788;8.824;2022-12-24T14:36:09;19.63;;;5.00;;
74612;SDS011;63119;51.788;8.824;2022-12-24T14:38:38;20.73;;;5.38;;
74612;SDS011;63119;51.788;8.824;2022-12-24T14:41:21;17.33;;;6.25;;
74612;SDS011;63119;51.788;8.824;2022-12-24T14:46:52;22.83;;;6.05;;
74612;SDS011;63119;51.788;8.824;2022-12-24T14:52:44;19.58;;;5.60;;
74612;SDS011;63119;51.788;8.824;2022-12-24T15:00:58;20.58;;;5.55;;
74612;SDS011;63119;51.788;8.824;2022-12-24T15:03:26;24.92;;;6.07;;
74612;SDS011;63119;51.788;8.824;2022-12-24T15:05:54;18.88;;;6.32;;
74612;SDS011;63119;51.788;8.824;2022-12-24T15:08:27;16.90;;;5.40;;
74612;SDS011;63119;51.788;8.824;2022-12-24T15:10:56;15.05;;;4.82;;
74612;SDS011;63119;51.788;8.824;2022-12-24T15:15:59;20.27;;;5.30;;
74612;SDS011;63119;51.788;8.824;2022-12-24T15:18:27;16.45;;;6.22;;
74612;SDS011;63119;51.788;8.824;2022-12-24T15:20:57;11.52;;;5.60;;
74612;SDS011;63119;51.788;8.824;2022-12-24T15:23:27;27.13;;;8.07;;
74612;SDS011;63119;51.788;8.824;2022-12-24T15:26:10;22.95;;;7.78;;
74612;SDS011;63119;51.788;8.824;2022-12-24T15:28:44;19.92;;;5.53;;
74612;SDS011;63119;51.788;8.824;2022-12-24T15:31:11;20.23;;;7.38;;
74612;SDS011;63119;51.788;8.824;2022-12-24T15:33:37;24.10;;;6.43;;
74612;SDS011;63119;51.788;8.824;2022-12-24T15:36:03;24.73;;;8.80;;
74612;SDS011;63119;51.788;8.824;2022-12-24T15:38:31;26.50;;;7.72;;
74612;SDS011;63119;51.788;8.824;2022-12-24T15:41:14;20.70;;;8.02;;
74612;SDS011;63119;51.788;8.824;2022-12-24T15:43:43;18.45;;;7.72;;
74612;SDS011;63119;51.788;8.824;2022-12-24T15:46:21;16.67;;;7.47;;
74612;SDS011;63119;51.788;8.824;2022-12-24T15:48:48;21.77;;;8.93;;
74612;SDS011;63119;51.788;8.824;2022-12-24T15:51:23;42.00;;;15.95;;
74612;SDS011;63119;51.788;8.824;2022-12-24T15:53:57;27.23;;;10.65;;
74612;SDS011;63119;51.788;8.824;2022-12-24T15:56:27;42.38;;;15.25;;
74612;SDS011;63119;51.788;8.824;2022-12-24T15:59:11;36.55;;;13.77;;
74612;SDS011;63119;51.788;8.824;2022-12-24T16:01:44;38.20;;;12.35;;
74612;SDS011;63119;51.788;8.824;2022-12-24T16:04:15;30.73;;;11.45;;
74612;SDS011;63119;51.788;8.824;2022-12-24T16:06:50;37.08;;;12.27;;
74612;SDS011;63119;51.788;8.824;2022-12-24T16:09:29;45.95;;;20.38;;
74612;SDS011;63119;51.788;8.824;2022-12-24T16:12:03;44.83;;;18.13;;
74612;SDS011;63119;51.788;8.824;2022-12-24T16:14:35;35.03;;;14.43;;
74612;SDS011;63119;51.788;8.824;2022-12-24T16:17:09;22.90;;;7.25;;
74612;SDS011;63119;51.788;8.824;2022-12-24T16:19:45;21.60;;;7.80;;
74612;SDS011;63119;51.788;8.824;2022-12-24T16:22:11;19.88;;;7.15;;